createdAt,value
2023-03-13T00:00:32.214Z,6.79
2023-03-13T00:02:04.361Z,6.79
2023-03-13T00:03:36.322Z,6.78
2023-03-13T00:05:08.896Z,6.78
2023-03-13T00:06:41.291Z,6.76
2023-03-13T00:08:13.452Z,6.72
2023-03-13T00:09:45.412Z,6.70
2023-03-13T00:11:17.437Z,6.70
2023-03-13T00:12:49.352Z,6.70
2023-03-13T00:14:21.308Z,6.69
2023-03-13T00:15:59.642Z,6.68
2023-03-13T00:17:33.453Z,6.68
2023-03-13T00:19:07.026Z,6.68
2023-03-13T00:20:39.168Z,6.67
2023-03-13T00:22:11.168Z,6.65
2023-03-13T00:23:43.184Z,6.63
2023-03-13T00:25:15.148Z,6.63
2023-03-13T00:26:47.279Z,6.62
2023-03-13T00:28:19.236Z,6.63
2023-03-13T00:29:53.744Z,6.63
2023-03-13T00:31:27.454Z,6.63
2023-03-13T00:32:59.573Z,6.62
2023-03-13T00:34:31.560Z,6.62
2023-03-13T00:36:05.728Z,6.61
2023-03-13T00:37:37.648Z,6.61
2023-03-13T00:39:09.680Z,6.61
2023-03-13T00:40:41.675Z,6.60
2023-03-13T00:42:13.597Z,6.58
2023-03-13T00:43:46.360Z,6.59
2023-03-13T00:45:18.268Z,6.58
2023-03-13T00:46:52.011Z,6.59
2023-03-13T00:48:24.289Z,6.58
2023-03-13T00:49:56.226Z,6.58
2023-03-13T00:51:28.819Z,6.58
2023-03-13T00:53:00.766Z,6.58
2023-03-13T00:54:33.063Z,6.58
2023-03-13T00:56:06.473Z,6.57
2023-03-13T00:57:38.865Z,6.54
2023-03-13T00:59:10.915Z,6.52
2023-03-13T01:00:42.950Z,6.51
2023-03-13T01:02:15.202Z,6.50
2023-03-13T01:03:49.176Z,6.49
2023-03-13T01:05:21.251Z,6.48
2023-03-13T01:06:54.500Z,6.47
2023-03-13T01:08:26.530Z,6.45
2023-03-13T01:09:58.595Z,6.45
2023-03-13T01:11:31.694Z,6.45
2023-03-13T01:13:05.380Z,6.45
2023-03-13T01:14:37.346Z,6.45
2023-03-13T01:16:09.512Z,6.44
2023-03-13T01:17:43.543Z,6.44
2023-03-13T01:19:16.298Z,6.46
2023-03-13T01:20:48.351Z,6.47
2023-03-13T01:22:20.500Z,6.45
2023-03-13T01:23:52.948Z,6.44
2023-03-13T01:25:25.219Z,6.42
2023-03-13T01:26:58.410Z,6.40
2023-03-13T01:28:30.428Z,6.39
2023-03-13T01:30:02.319Z,6.37
2023-03-13T01:31:35.546Z,6.36
2023-03-13T01:33:07.669Z,6.35
2023-03-13T01:34:40.696Z,6.33
2023-03-13T01:36:12.761Z,6.31
2023-03-13T01:37:44.762Z,6.27
2023-03-13T01:39:16.874Z,6.21
2023-03-13T01:40:49.269Z,6.16
2023-03-13T01:42:21.254Z,6.10
2023-03-13T01:43:55.591Z,6.02
2023-03-13T01:45:46.717Z,5.93
2023-03-13T01:47:18.767Z,5.83
2023-03-13T01:49:21.910Z,5.74
2023-03-13T01:51:20.986Z,5.66
2023-03-13T01:52:53.169Z,5.57
2023-03-13T01:54:38.443Z,5.49
2023-03-13T01:56:13.868Z,5.41
2023-03-13T01:57:50.511Z,5.36
2023-03-13T01:59:24.904Z,5.32
2023-03-13T02:00:57.556Z,5.28
2023-03-13T02:02:29.756Z,5.24
2023-03-13T02:04:01.853Z,5.18
2023-03-13T02:05:33.864Z,5.13
2023-03-13T02:07:10.721Z,5.09
2023-03-13T02:08:49.255Z,5.03
2023-03-13T02:10:22.275Z,4.99
2023-03-13T02:12:14.917Z,4.92
2023-03-13T02:13:47.197Z,4.83
2023-03-13T02:15:20.554Z,4.77
2023-03-13T02:16:53.052Z,4.68
2023-03-13T02:18:26.091Z,4.59
2023-03-13T02:19:58.282Z,4.54
2023-03-13T02:21:30.252Z,4.48
2023-03-13T02:23:05.337Z,4.44
2023-03-13T02:24:39.889Z,4.38
2023-03-13T02:26:12.465Z,4.35
2023-03-13T02:27:45.493Z,4.31
2023-03-13T02:29:18.580Z,4.26
2023-03-13T02:30:52.825Z,4.22
2023-03-13T02:32:25.762Z,4.18
2023-03-13T02:34:00.668Z,4.15
2023-03-13T02:35:33.296Z,4.12
2023-03-13T02:37:10.940Z,4.11
2023-03-13T02:38:47.608Z,4.13
2023-03-13T02:40:24.581Z,4.15
2023-03-13T02:41:56.907Z,4.19
2023-03-13T02:43:36.039Z,4.23
2023-03-13T02:45:09.596Z,4.29
2023-03-13T02:46:46.297Z,4.34
2023-03-13T02:48:28.327Z,4.40
2023-03-13T02:50:01.890Z,4.45
2023-03-13T02:51:38.707Z,4.51
2023-03-13T02:53:10.702Z,4.55
2023-03-13T02:54:44.974Z,4.60
2023-03-13T02:56:17.922Z,4.64
2023-03-13T02:57:50.021Z,4.70
2023-03-13T02:59:21.935Z,4.73
2023-03-13T03:00:54.950Z,4.79
2023-03-13T03:02:27.558Z,4.83
2023-03-13T03:03:59.731Z,4.88
2023-03-13T03:05:31.804Z,4.92
2023-03-13T03:07:03.947Z,4.97
2023-03-13T03:08:36.137Z,5.02
2023-03-13T03:10:09.391Z,5.07
2023-03-13T03:11:41.446Z,5.12
2023-03-13T03:13:17.383Z,5.16
2023-03-13T03:14:49.592Z,5.22
2023-03-13T03:16:22.635Z,5.27
2023-03-13T03:17:54.777Z,5.31
2023-03-13T03:19:27.236Z,5.35
2023-03-13T03:20:59.605Z,5.39
2023-03-13T03:22:31.620Z,5.43
2023-03-13T03:24:06.585Z,5.47
2023-03-13T03:25:38.590Z,5.50
2023-03-13T03:27:11.027Z,5.54
2023-03-13T03:28:48.928Z,5.56
2023-03-13T03:30:21.798Z,5.57
2023-03-13T03:31:54.153Z,5.59
2023-03-13T03:33:26.524Z,5.60
2023-03-13T03:34:58.599Z,5.60
2023-03-13T03:36:30.588Z,5.62
2023-03-13T03:38:02.750Z,5.64
2023-03-13T03:39:34.752Z,5.66
2023-03-13T03:41:07.716Z,5.67
2023-03-13T03:42:39.780Z,5.68
2023-03-13T03:44:12.093Z,5.69
2023-03-13T03:45:54.855Z,5.70
2023-03-13T03:47:27.883Z,5.69
2023-03-13T03:48:59.955Z,5.68
2023-03-13T03:50:32.054Z,5.65
2023-03-13T03:52:06.610Z,5.63
2023-03-13T03:53:42.624Z,5.60
2023-03-13T03:55:14.910Z,5.55
2023-03-13T03:56:46.891Z,5.51
2023-03-13T03:58:18.907Z,5.48
2023-03-13T04:00:07.756Z,5.44
2023-03-13T04:01:44.756Z,5.42
2023-03-13T04:03:18.672Z,5.41
2023-03-13T04:04:51.260Z,5.41
2023-03-13T04:06:30.906Z,5.42
2023-03-13T04:08:03.129Z,5.42
2023-03-13T04:09:35.506Z,5.42
2023-03-13T04:11:09.287Z,5.41
2023-03-13T04:12:44.473Z,5.43
2023-03-13T04:14:16.428Z,5.42
2023-03-13T04:15:48.976Z,5.41
2023-03-13T04:17:21.776Z,5.40
2023-03-13T04:18:54.212Z,5.41
2023-03-13T04:20:26.563Z,5.41
2023-03-13T04:21:58.602Z,5.40
2023-03-13T04:23:30.690Z,5.38
2023-03-13T04:25:02.729Z,5.35
2023-03-13T04:26:36.582Z,5.33
2023-03-13T04:28:09.039Z,5.30
2023-03-13T04:29:46.030Z,5.27
2023-03-13T04:31:42.530Z,5.21
2023-03-13T04:33:32.769Z,5.12
2023-03-13T04:35:19.740Z,5.04
2023-03-13T04:37:09.790Z,4.94
2023-03-13T04:38:56.709Z,4.85
2023-03-13T04:40:49.017Z,4.77
2023-03-13T04:42:53.250Z,4.67
2023-03-13T04:44:54.207Z,4.62
2023-03-13T04:46:46.448Z,4.57
2023-03-13T04:48:38.621Z,4.56
2023-03-13T04:50:42.645Z,4.59
2023-03-13T04:52:17.271Z,4.61
2023-03-13T04:54:18.723Z,4.64
2023-03-13T04:56:15.314Z,4.67
2023-03-13T04:58:10.366Z,4.69
2023-03-13T04:59:50.113Z,4.70
2023-03-13T05:01:41.704Z,4.73
2023-03-13T05:03:14.279Z,4.77
2023-03-13T05:05:05.230Z,4.81
2023-03-13T05:06:55.622Z,4.83
2023-03-13T05:08:56.734Z,4.85
2023-03-13T05:10:48.601Z,4.89
2023-03-13T05:12:32.044Z,4.89
2023-03-13T05:14:32.350Z,4.92
2023-03-13T05:16:16.840Z,4.91
2023-03-13T05:18:20.933Z,4.91
2023-03-13T05:20:19.948Z,4.90
2023-03-13T05:22:10.443Z,4.89
2023-03-13T05:24:00.817Z,4.88
2023-03-13T05:26:11.336Z,4.90
2023-03-13T05:27:54.995Z,4.91
2023-03-13T05:29:45.314Z,4.92
2023-03-13T05:31:26.467Z,4.95
2023-03-13T05:33:07.721Z,4.97
2023-03-13T05:34:58.364Z,4.99
2023-03-13T05:36:49.437Z,4.98
2023-03-13T05:38:37.314Z,4.99
2023-03-13T05:40:27.943Z,4.97
2023-03-13T05:42:20.256Z,4.96
2023-03-13T05:44:03.950Z,4.94
2023-03-13T05:46:14.139Z,4.89
2023-03-13T05:47:58.971Z,4.90
2023-03-13T05:49:33.855Z,4.91
2023-03-13T05:51:12.100Z,4.97
2023-03-13T05:52:58.081Z,5.04
2023-03-13T05:54:52.946Z,5.12
2023-03-13T05:56:45.070Z,5.18
2023-03-13T05:58:38.101Z,5.23
2023-03-13T06:00:30.431Z,5.29
2023-03-13T06:02:22.698Z,5.31
2023-03-13T06:03:55.789Z,5.33
2023-03-13T06:05:29.234Z,5.32
2023-03-13T06:07:01.413Z,5.32
2023-03-13T06:08:33.758Z,5.31
2023-03-13T06:10:06.464Z,5.31
2023-03-13T06:11:38.601Z,5.30
2023-03-13T06:13:19.690Z,5.28
2023-03-13T06:14:54.487Z,5.29
2023-03-13T06:16:36.963Z,5.37
2023-03-13T06:18:24.810Z,5.82
2023-03-13T06:19:56.812Z,6.61
2023-03-13T06:21:29.006Z,7.28
2023-03-13T06:23:01.056Z,7.91
2023-03-13T06:24:33.112Z,8.53
2023-03-13T06:26:05.150Z,9.15
2023-03-13T06:27:37.205Z,9.68
2023-03-13T06:29:09.292Z,10.12
2023-03-13T06:30:41.361Z,10.48
2023-03-13T06:32:13.487Z,10.87
2023-03-13T06:33:45.640Z,11.36
2023-03-13T06:35:17.630Z,11.61
2023-03-13T06:36:49.728Z,11.90
2023-03-13T06:38:21.687Z,12.13
2023-03-13T06:39:53.715Z,12.24
2023-03-13T06:41:25.730Z,12.19
2023-03-13T06:42:57.679Z,12.12
2023-03-13T06:44:29.648Z,12.04
2023-03-13T06:46:05.380Z,11.81
2023-03-13T06:47:37.268Z,11.49
2023-03-13T06:49:09.284Z,11.22
2023-03-13T06:50:41.734Z,11.08
2023-03-13T06:52:13.790Z,10.86
2023-03-13T06:53:45.965Z,11.02
2023-03-13T06:55:18.041Z,11.15
2023-03-13T06:56:49.993Z,11.08
2023-03-13T06:58:31.956Z,11.06
2023-03-13T07:00:06.363Z,11.18
2023-03-13T07:01:38.384Z,11.27
2023-03-13T07:03:14.397Z,11.45
2023-03-13T07:04:46.679Z,11.70
2023-03-13T07:06:18.963Z,11.87
2023-03-13T07:07:50.995Z,11.78
2023-03-13T07:09:22.913Z,11.92
2023-03-13T07:10:58.092Z,12.20
2023-03-13T07:12:30.057Z,12.42
2023-03-13T07:14:15.241Z,12.63
2023-03-13T07:15:51.564Z,12.60
2023-03-13T07:17:23.633Z,12.55
2023-03-13T07:18:55.671Z,12.50
2023-03-13T07:20:27.693Z,12.39
2023-03-13T07:21:59.942Z,12.36
2023-03-13T07:23:32.496Z,12.41
2023-03-13T07:25:05.219Z,12.32
2023-03-13T07:26:37.723Z,12.31
2023-03-13T07:28:09.772Z,12.30
2023-03-13T07:29:41.711Z,12.29
2023-03-13T07:31:15.536Z,12.26
2023-03-13T07:32:47.781Z,12.23
2023-03-13T07:34:19.795Z,12.13
2023-03-13T07:35:52.188Z,12.10
2023-03-13T07:37:24.358Z,12.00
2023-03-13T07:38:56.590Z,11.95
2023-03-13T07:40:28.527Z,12.16
2023-03-13T07:42:00.741Z,12.33
2023-03-13T07:43:32.836Z,12.32
2023-03-13T07:45:05.024Z,12.34
2023-03-13T07:46:37.009Z,12.34
2023-03-13T07:48:09.079Z,12.25
2023-03-13T07:49:44.118Z,11.99
2023-03-13T07:51:33.490Z,11.89
2023-03-13T07:53:15.016Z,11.64
2023-03-13T07:54:48.203Z,11.63
2023-03-13T07:56:21.253Z,11.79
2023-03-13T07:57:53.277Z,11.89
2023-03-13T07:59:25.521Z,11.90
2023-03-13T08:00:57.880Z,11.91
2023-03-13T08:02:29.898Z,11.93
2023-03-13T08:04:01.968Z,11.96
2023-03-13T08:05:33.905Z,12.04
2023-03-13T08:07:12.439Z,12.16
2023-03-13T08:08:44.431Z,12.14
2023-03-13T08:10:16.602Z,12.14
2023-03-13T08:11:49.049Z,11.86
2023-03-13T08:13:21.079Z,11.48
2023-03-13T08:14:53.034Z,11.22
2023-03-13T08:16:26.562Z,11.26
2023-03-13T08:17:58.596Z,11.44
2023-03-13T08:19:30.800Z,11.50
2023-03-13T08:21:03.587Z,11.48
2023-03-13T08:22:38.186Z,11.46
2023-03-13T08:24:11.458Z,11.46
2023-03-13T08:25:43.522Z,11.48
2023-03-13T08:27:15.510Z,11.47
2023-03-13T08:28:48.423Z,11.33
2023-03-13T08:30:20.569Z,11.05
2023-03-13T08:31:52.842Z,11.00
2023-03-13T08:33:24.883Z,10.96
2023-03-13T08:34:56.918Z,11.00
2023-03-13T08:36:33.020Z,11.03
2023-03-13T08:38:06.969Z,11.07
2023-03-13T08:39:38.891Z,11.19
2023-03-13T08:41:11.388Z,11.26
2023-03-13T08:42:43.326Z,11.31
2023-03-13T08:44:17.248Z,11.27
2023-03-13T08:45:54.544Z,11.19
2023-03-13T08:47:26.629Z,10.95
2023-03-13T08:49:32.899Z,10.83
2023-03-13T08:51:09.280Z,10.83
2023-03-13T08:52:43.942Z,10.82
2023-03-13T08:54:16.291Z,10.94
2023-03-13T08:55:52.582Z,11.11
2023-03-13T08:57:24.673Z,11.32
2023-03-13T08:58:58.165Z,11.44
2023-03-13T09:00:30.227Z,11.37
2023-03-13T09:02:03.298Z,11.36
2023-03-13T09:03:35.622Z,11.37
2023-03-13T09:05:07.854Z,11.35
2023-03-13T09:06:40.041Z,11.44
2023-03-13T09:08:12.458Z,11.59
2023-03-13T09:09:44.685Z,11.65
2023-03-13T09:11:18.072Z,11.83
2023-03-13T09:12:50.076Z,12.01
2023-03-13T09:14:22.019Z,12.07
2023-03-13T09:16:03.824Z,11.94
2023-03-13T09:17:35.868Z,11.84
2023-03-13T09:19:07.939Z,11.88
2023-03-13T09:20:39.989Z,11.78
2023-03-13T09:22:11.980Z,11.77
2023-03-13T09:23:44.232Z,11.77
2023-03-13T09:25:16.355Z,11.80
2023-03-13T09:27:00.401Z,11.93
2023-03-13T09:28:33.436Z,11.90
2023-03-13T09:30:05.900Z,11.99
2023-03-13T09:31:38.522Z,12.00
2023-03-13T09:33:10.609Z,12.00
2023-03-13T09:34:42.600Z,11.94
2023-03-13T09:36:15.070Z,11.92
2023-03-13T09:37:47.092Z,11.95
2023-03-13T09:39:19.110Z,11.86
2023-03-13T09:41:05.259Z,11.82
2023-03-13T09:42:51.380Z,11.74
2023-03-13T09:44:24.740Z,11.75
2023-03-13T09:45:59.132Z,11.75
2023-03-13T09:48:00.711Z,11.81
2023-03-13T09:49:41.392Z,11.78
2023-03-13T09:51:19.365Z,11.83
2023-03-13T09:52:53.540Z,11.95
2023-03-13T09:54:31.736Z,11.87
2023-03-13T09:56:05.513Z,11.72
2023-03-13T09:57:40.788Z,11.68
2023-03-13T09:59:20.495Z,11.75
2023-03-13T10:00:58.148Z,11.89
2023-03-13T10:02:34.346Z,12.03
2023-03-13T10:04:06.357Z,12.04
2023-03-13T10:05:49.043Z,12.20
2023-03-13T10:07:21.411Z,12.37
2023-03-13T10:08:53.572Z,12.53
2023-03-13T10:10:33.636Z,12.63
2023-03-13T10:12:05.702Z,12.80
2023-03-13T10:14:00.127Z,12.94
2023-03-13T10:15:55.384Z,13.12
2023-03-13T10:17:34.970Z,13.29
2023-03-13T10:19:15.835Z,13.37
2023-03-13T10:20:49.468Z,13.46
2023-03-13T10:22:25.327Z,13.42
2023-03-13T10:24:01.091Z,13.40
2023-03-13T10:25:34.434Z,13.54
2023-03-13T10:27:08.744Z,13.73
2023-03-13T10:28:40.735Z,14.00
2023-03-13T10:30:33.258Z,14.26
2023-03-13T10:32:06.521Z,14.48
2023-03-13T10:33:38.586Z,14.62
2023-03-13T10:35:12.424Z,14.72
2023-03-13T10:36:48.441Z,14.86
2023-03-13T10:38:22.815Z,14.93
2023-03-13T10:40:35.390Z,15.01
2023-03-13T10:42:40.354Z,15.19
2023-03-13T10:44:20.898Z,15.45
2023-03-13T10:45:53.118Z,15.52
2023-03-13T10:47:25.188Z,15.64
2023-03-13T10:48:57.983Z,15.77
2023-03-13T10:50:32.976Z,15.83
2023-03-13T10:52:06.455Z,15.95
2023-03-13T10:53:38.565Z,16.08
2023-03-13T10:55:13.712Z,16.18
2023-03-13T10:56:45.751Z,16.34
2023-03-13T10:58:20.148Z,16.51
2023-03-13T10:59:52.882Z,16.68
2023-03-13T11:01:26.283Z,16.78
2023-03-13T11:02:58.562Z,16.76
2023-03-13T11:04:32.511Z,16.80
2023-03-13T11:06:04.568Z,16.82
2023-03-13T11:07:38.336Z,16.86
2023-03-13T11:09:10.374Z,16.92
2023-03-13T11:11:01.819Z,16.91
2023-03-13T11:12:36.193Z,16.85
2023-03-13T11:14:09.667Z,16.79
2023-03-13T11:15:44.259Z,16.83
2023-03-13T11:17:39.318Z,16.97
2023-03-13T11:19:14.274Z,17.05
2023-03-13T11:20:46.898Z,17.21
2023-03-13T11:22:27.800Z,17.34
2023-03-13T11:24:04.605Z,17.38
2023-03-13T11:25:43.284Z,17.41
2023-03-13T11:27:30.412Z,17.18
2023-03-13T11:29:17.995Z,17.05
2023-03-13T11:30:50.503Z,17.00
2023-03-13T11:32:38.496Z,16.96
2023-03-13T11:34:21.247Z,16.87
2023-03-13T11:36:19.645Z,16.83
2023-03-13T11:37:52.480Z,16.70
2023-03-13T11:39:24.448Z,16.57
2023-03-13T11:41:00.862Z,16.52
2023-03-13T11:42:35.836Z,16.53
2023-03-13T11:44:28.851Z,16.62
2023-03-13T11:46:10.489Z,16.70
2023-03-13T11:47:50.231Z,16.79
2023-03-13T11:49:28.453Z,16.86
2023-03-13T11:51:13.563Z,16.91
2023-03-13T11:52:45.659Z,16.92
2023-03-13T11:54:44.012Z,16.94
2023-03-13T11:56:23.021Z,16.93
2023-03-13T11:58:12.995Z,17.01
2023-03-13T11:59:48.022Z,17.02
2023-03-13T12:01:21.000Z,17.03
2023-03-13T12:03:18.774Z,16.99
2023-03-13T12:04:59.769Z,16.88
2023-03-13T12:06:37.524Z,16.86
2023-03-13T12:08:26.505Z,16.86
2023-03-13T12:10:10.561Z,16.87
2023-03-13T12:11:54.656Z,16.90
2023-03-13T12:13:33.356Z,16.87
2023-03-13T12:15:18.901Z,16.88
2023-03-13T12:16:57.544Z,16.96
2023-03-13T12:18:38.612Z,16.99
2023-03-13T12:20:13.563Z,17.10
2023-03-13T12:21:56.630Z,17.20
2023-03-13T12:23:35.600Z,17.29
2023-03-13T12:25:24.948Z,17.40
2023-03-13T12:27:02.685Z,17.56
2023-03-13T12:28:34.810Z,17.69
2023-03-13T12:30:14.848Z,17.80
2023-03-13T12:31:53.012Z,17.90
2023-03-13T12:33:25.309Z,17.91
2023-03-13T12:35:12.540Z,17.86
2023-03-13T12:36:48.985Z,17.78
2023-03-13T12:38:30.054Z,17.68
2023-03-13T12:40:09.440Z,17.50
2023-03-13T12:41:43.665Z,17.36
2023-03-13T12:43:24.850Z,17.22
2023-03-13T12:44:58.822Z,17.15
2023-03-13T12:46:36.528Z,17.11
2023-03-13T12:48:21.984Z,17.08
2023-03-13T12:50:09.149Z,17.10
2023-03-13T12:51:57.558Z,17.10
2023-03-13T12:53:44.834Z,17.10
2023-03-13T12:55:32.250Z,17.12
2023-03-13T12:57:17.732Z,17.12
2023-03-13T12:58:55.767Z,17.11
2023-03-13T13:00:29.848Z,17.17
2023-03-13T13:02:03.797Z,17.25
2023-03-13T13:03:40.250Z,17.37
2023-03-13T13:05:19.344Z,17.44
2023-03-13T13:07:02.526Z,17.55
2023-03-13T13:08:36.883Z,17.65
2023-03-13T13:10:11.358Z,17.68
2023-03-13T13:11:47.330Z,17.78
